createdAt,value
2023-05-02T00:01:31.582Z,98346.47
2023-05-02T00:03:58.132Z,98347.78
2023-05-02T00:06:24.867Z,98356.41
2023-05-02T00:08:51.432Z,98356.22
2023-05-02T00:11:17.871Z,98347.78
2023-05-02T00:13:44.722Z,98346.13
2023-05-02T00:16:11.344Z,98351.91
2023-05-02T00:18:37.835Z,98342.47
2023-05-02T00:21:04.326Z,98341.47
2023-05-02T00:23:31.941Z,98328.69
2023-05-02T00:25:58.423Z,98341.63
2023-05-02T00:28:26.467Z,98350.41
2023-05-02T00:30:53.508Z,98342.59
2023-05-02T00:33:19.966Z,98343.75
2023-05-02T00:35:46.429Z,98345.75
2023-05-02T00:38:12.959Z,98339.44
2023-05-02T00:40:47.755Z,98335.59
2023-05-02T00:43:15.358Z,98329.47
2023-05-02T00:45:43.588Z,98331.13
2023-05-02T00:48:10.836Z,98326.47
2023-05-02T00:50:38.759Z,98318.66
2023-05-02T00:53:05.588Z,98323.47
2023-05-02T00:55:36.085Z,98319.97
2023-05-02T00:58:06.810Z,98325.44
2023-05-02T01:00:59.936Z,98335.41
2023-05-02T01:04:00.388Z,98335.41
2023-05-02T01:06:42.261Z,98335.63
2023-05-02T01:09:30.368Z,98336.94
2023-05-02T01:12:05.569Z,98345.00
2023-05-02T01:14:55.182Z,98341.28
2023-05-02T01:17:24.897Z,98337.59
2023-05-02T01:19:55.274Z,98344.72
2023-05-02T01:22:24.615Z,98331.47
2023-05-02T01:25:14.007Z,98334.31
2023-05-02T01:27:47.057Z,98329.47
2023-05-02T01:30:16.396Z,98340.38
2023-05-02T01:32:46.613Z,98341.94
2023-05-02T01:35:18.215Z,98340.75
2023-05-02T01:37:47.174Z,98340.00
2023-05-02T01:40:18.649Z,98354.97
2023-05-02T01:42:50.156Z,98353.88
2023-05-02T01:45:18.618Z,98347.72
2023-05-02T01:47:46.729Z,98343.06
2023-05-02T01:50:17.352Z,98349.38
2023-05-02T01:52:47.414Z,98358.22
2023-05-02T01:55:16.179Z,98359.97
2023-05-02T01:57:45.792Z,98351.97
2023-05-02T02:00:13.798Z,98354.81
2023-05-02T02:02:42.478Z,98362.22
2023-05-02T02:05:10.616Z,98375.41
2023-05-02T02:07:40.642Z,98377.38
2023-05-02T02:10:11.187Z,98366.47
2023-05-02T02:12:52.219Z,98364.84
2023-05-02T02:15:25.713Z,98368.84
2023-05-02T02:17:57.265Z,98374.16
2023-05-02T02:20:23.766Z,98373.50
2023-05-02T02:22:51.443Z,98385.13
2023-05-02T02:25:19.884Z,98379.84
2023-05-02T02:27:47.601Z,98383.66
2023-05-02T02:30:14.170Z,98385.78
2023-05-02T02:32:40.675Z,98384.19
2023-05-02T02:35:10.413Z,98366.59
2023-05-02T02:37:56.648Z,98367.94
2023-05-02T02:40:29.356Z,98385.09
2023-05-02T02:43:09.200Z,98379.06
2023-05-02T02:45:43.393Z,98387.22
2023-05-02T02:48:27.938Z,98383.28
2023-05-02T02:51:40.639Z,98403.56
2023-05-02T02:54:29.398Z,98371.41
2023-05-02T02:57:07.651Z,98388.50
2023-05-02T02:59:40.741Z,98379.06
2023-05-02T03:02:12.511Z,98369.25
2023-05-02T03:04:44.998Z,98388.19
2023-05-02T03:07:14.979Z,98382.56
2023-05-02T03:09:48.472Z,98389.03
2023-05-02T03:12:15.080Z,98373.78
2023-05-02T03:14:42.461Z,98374.47
2023-05-02T03:17:11.764Z,98377.50
2023-05-02T03:19:38.491Z,98383.13
2023-05-02T03:22:05.900Z,98386.41
2023-05-02T03:24:32.453Z,98376.63
2023-05-02T03:26:59.575Z,98386.69
2023-05-02T03:29:26.839Z,98397.44
2023-05-02T03:31:53.353Z,98397.63
2023-05-02T03:34:21.940Z,98390.63
2023-05-02T03:36:48.540Z,98395.75
2023-05-02T03:39:15.428Z,98389.94
2023-05-02T03:41:46.558Z,98397.03
2023-05-02T03:44:15.834Z,98392.31
2023-05-02T03:46:45.445Z,98386.44
2023-05-02T03:49:15.205Z,98393.66
2023-05-02T03:51:44.652Z,98386.59
2023-05-02T03:54:13.578Z,98392.94
2023-05-02T03:56:42.661Z,98398.84
2023-05-02T03:59:09.307Z,98399.72
2023-05-02T04:01:35.816Z,98389.66
2023-05-02T04:04:02.539Z,98393.28
2023-05-02T04:06:29.287Z,98389.66
2023-05-02T04:08:55.750Z,98406.06
2023-05-02T04:11:22.287Z,98406.13
2023-05-02T04:13:48.831Z,98418.47
2023-05-02T04:16:15.874Z,98417.56
2023-05-02T04:18:44.469Z,98424.31
2023-05-02T04:21:11.012Z,98422.84
2023-05-02T04:23:37.754Z,98424.66
2023-05-02T04:26:04.208Z,98417.13
2023-05-02T04:28:30.688Z,98417.88
2023-05-02T04:30:57.726Z,98431.84
2023-05-02T04:33:24.593Z,98421.72
2023-05-02T04:35:51.168Z,98414.47
2023-05-02T04:38:17.742Z,98425.56
2023-05-02T04:40:46.295Z,98437.44
2023-05-02T04:43:12.726Z,98440.81
2023-05-02T04:45:39.191Z,98428.63
2023-05-02T04:48:05.901Z,98433.81
2023-05-02T04:50:32.882Z,98434.78
2023-05-02T04:52:59.537Z,98442.75
2023-05-02T04:55:26.134Z,98436.81
2023-05-02T04:57:52.677Z,98440.28
2023-05-02T05:00:19.260Z,98448.16
2023-05-02T05:02:49.344Z,98439.81
2023-05-02T05:05:16.499Z,98446.16
2023-05-02T05:07:43.497Z,98455.47
2023-05-02T05:10:11.471Z,98463.47
2023-05-02T05:12:38.187Z,98451.25
2023-05-02T05:15:05.115Z,98452.94
2023-05-02T05:17:31.622Z,98458.44
2023-05-02T05:19:58.219Z,98441.63
2023-05-02T05:22:24.775Z,98466.41
2023-05-02T05:24:55.238Z,98478.53
2023-05-02T05:27:22.056Z,98484.22
2023-05-02T05:29:48.621Z,98479.94
2023-05-02T05:32:18.293Z,98480.50
2023-05-02T05:34:51.824Z,98490.31
2023-05-02T05:37:18.784Z,98500.59
2023-05-02T05:39:48.288Z,98498.31
2023-05-02T05:42:18.672Z,98500.31
2023-05-02T05:44:49.593Z,98506.22
2023-05-02T05:47:22.050Z,98502.72
2023-05-02T05:49:53.154Z,98496.13
2023-05-02T05:52:19.672Z,98489.66
2023-05-02T05:54:51.386Z,98500.97
2023-05-02T05:57:18.066Z,98484.38
2023-05-02T05:59:48.811Z,98490.56
2023-05-02T06:02:19.832Z,98488.09
2023-05-02T06:04:47.565Z,98496.03
2023-05-02T06:07:15.880Z,98487.59
2023-05-02T06:09:42.616Z,98489.59
2023-05-02T06:12:09.411Z,98494.09
2023-05-02T06:14:36.227Z,98493.41
2023-05-02T06:17:02.941Z,98489.63
2023-05-02T06:19:29.773Z,98498.44
2023-05-02T06:21:56.512Z,98481.22
2023-05-02T06:24:23.206Z,98491.81
2023-05-02T06:26:51.613Z,98487.69
2023-05-02T06:29:18.070Z,98480.19
2023-05-02T06:31:46.160Z,98475.38
2023-05-02T06:34:12.734Z,98465.59
2023-05-02T06:36:39.181Z,98465.69
2023-05-02T06:39:05.734Z,98471.81
2023-05-02T06:41:32.162Z,98485.91
2023-05-02T06:43:58.811Z,98482.53
2023-05-02T06:46:29.313Z,98484.91
2023-05-02T06:48:55.731Z,98483.81
2023-05-02T06:51:22.521Z,98486.41
2023-05-02T06:53:49.181Z,98490.13
2023-05-02T06:56:18.964Z,98485.63
2023-05-02T06:58:48.932Z,98477.44
2023-05-02T07:01:18.483Z,98481.53
2023-05-02T07:03:47.378Z,98484.53
2023-05-02T07:06:16.916Z,98480.00
2023-05-02T07:08:46.115Z,98492.22
2023-05-02T07:11:12.728Z,98479.56
2023-05-02T07:13:39.162Z,98477.53
2023-05-02T07:16:06.251Z,98484.88
2023-05-02T07:18:32.758Z,98483.41
2023-05-02T07:20:59.349Z,98491.97
2023-05-02T07:23:25.915Z,98493.31
2023-05-02T07:25:52.392Z,98496.13
2023-05-02T07:28:18.902Z,98493.47
2023-05-02T07:30:46.748Z,98477.03
2023-05-02T07:33:18.950Z,98487.72
2023-05-02T07:35:48.576Z,98479.75
2023-05-02T07:38:17.856Z,98476.16
2023-05-02T07:40:46.462Z,98467.53
2023-05-02T07:43:15.402Z,98472.50
2023-05-02T07:45:42.234Z,98475.13
2023-05-02T07:48:08.798Z,98467.44
2023-05-02T07:50:35.540Z,98449.59
2023-05-02T07:53:02.025Z,98482.38
2023-05-02T07:55:28.675Z,98459.16
2023-05-02T07:57:55.139Z,98475.31
2023-05-02T08:00:21.746Z,98465.19
2023-05-02T08:02:48.351Z,98467.56
2023-05-02T08:05:18.509Z,98459.75
2023-05-02T08:07:48.270Z,98461.44
2023-05-02T08:10:18.289Z,98470.13
2023-05-02T08:12:46.352Z,98452.00
2023-05-02T08:15:14.638Z,98461.13
2023-05-02T08:17:41.725Z,98464.63
2023-05-02T08:20:08.565Z,98460.94
2023-05-02T08:22:35.057Z,98465.69
2023-05-02T08:25:01.557Z,98459.06
2023-05-02T08:27:28.049Z,98469.53
2023-05-02T08:29:54.537Z,98472.94
2023-05-02T08:32:22.349Z,98471.91
2023-05-02T08:34:48.884Z,98473.75
2023-05-02T08:37:18.480Z,98471.88
2023-05-02T08:39:47.970Z,98470.56
2023-05-02T08:42:16.283Z,98472.66
2023-05-02T08:44:42.785Z,98485.19
2023-05-02T08:47:15.826Z,98476.63
2023-05-02T08:49:42.484Z,98487.81
2023-05-02T08:52:12.222Z,98481.22
2023-05-02T08:54:39.188Z,98489.84
2023-05-02T08:57:05.949Z,98500.22
2023-05-02T08:59:32.548Z,98492.56
2023-05-02T09:02:17.865Z,98499.63
2023-05-02T09:04:53.342Z,98494.00
2023-05-02T09:07:19.876Z,98494.53
2023-05-02T09:09:49.294Z,98503.59
2023-05-02T09:12:26.409Z,98495.56
2023-05-02T09:15:11.592Z,98494.03
2023-05-02T09:17:47.318Z,98479.81
2023-05-02T09:20:18.958Z,98494.78
2023-05-02T09:22:50.679Z,98498.16
2023-05-02T09:25:17.767Z,98498.63
2023-05-02T09:27:55.220Z,98500.59
2023-05-02T09:30:23.056Z,98492.34
2023-05-02T09:32:55.904Z,98505.53
2023-05-02T09:35:26.020Z,98489.50
2023-05-02T09:37:59.272Z,98494.47
2023-05-02T09:40:27.539Z,98492.75
2023-05-02T09:42:54.044Z,98503.38
2023-05-02T09:45:29.584Z,98494.25
2023-05-02T09:48:02.614Z,98514.59
2023-05-02T09:50:36.471Z,98507.72
2023-05-02T09:53:11.228Z,98512.84
2023-05-02T09:55:37.885Z,98502.97
2023-05-02T09:58:04.506Z,98506.81
2023-05-02T10:00:40.504Z,98496.13
2023-05-02T10:03:08.533Z,98491.25
2023-05-02T10:05:40.285Z,98500.44
2023-05-02T10:08:07.861Z,98499.25
2023-05-02T10:10:37.004Z,98498.31
2023-05-02T10:13:05.214Z,98494.94
2023-05-02T10:15:33.815Z,98501.28
2023-05-02T10:18:08.923Z,98490.53
2023-05-02T10:20:37.734Z,98505.75
2023-05-02T10:23:06.094Z,98498.66
2023-05-02T10:25:33.326Z,98491.22
2023-05-02T10:28:00.489Z,98493.06
2023-05-02T10:30:27.185Z,98486.22
2023-05-02T10:32:56.858Z,98490.75
2023-05-02T10:35:26.632Z,98466.47
2023-05-02T10:37:53.772Z,98468.25
2023-05-02T10:40:20.317Z,98482.66
2023-05-02T10:42:51.129Z,98477.06
2023-05-02T10:45:31.886Z,98484.25
2023-05-02T10:48:22.225Z,98483.84
2023-05-02T10:50:52.290Z,98478.97
2023-05-02T10:53:22.629Z,98482.81
2023-05-02T10:56:21.772Z,98474.38
2023-05-02T10:58:50.262Z,98460.19
2023-05-02T11:01:29.325Z,98466.34
2023-05-02T11:04:01.069Z,98453.72
2023-05-02T11:06:29.130Z,98459.91
2023-05-02T11:09:24.760Z,98457.63
2023-05-02T11:11:54.918Z,98447.25
2023-05-02T11:14:30.837Z,98451.53
2023-05-02T11:17:06.174Z,98442.50
2023-05-02T11:19:38.238Z,98438.16
2023-05-02T11:22:24.386Z,98433.50
2023-05-02T11:24:51.261Z,98435.88
2023-05-02T11:27:29.980Z,98433.03
2023-05-02T11:29:58.145Z,98432.28
2023-05-02T11:32:50.159Z,98442.34
2023-05-02T11:35:23.800Z,98446.03
2023-05-02T11:37:54.350Z,98442.72
2023-05-02T11:40:20.939Z,98445.31
2023-05-02T11:42:47.656Z,98437.97
2023-05-02T11:45:17.100Z,98434.56
2023-05-02T11:47:44.620Z,98442.41
2023-05-02T11:50:12.512Z,98420.28
2023-05-02T11:52:40.777Z,98428.31
2023-05-02T11:55:11.735Z,98422.34
2023-05-02T11:57:39.469Z,98427.25
2023-05-02T12:00:06.872Z,98415.66
2023-05-02T12:02:43.512Z,98425.22
2023-05-02T12:05:16.689Z,98429.72
2023-05-02T12:07:49.338Z,98429.19
2023-05-02T12:10:16.575Z,98433.25
2023-05-02T12:12:45.983Z,98434.00
2023-05-02T12:15:12.913Z,98425.34
2023-05-02T12:17:42.709Z,98429.06
2023-05-02T12:20:10.870Z,98419.13
2023-05-02T12:22:38.070Z,98409.81
2023-05-02T12:25:08.699Z,98414.19
2023-05-02T12:27:35.738Z,98422.56
2023-05-02T12:30:02.415Z,98410.63
2023-05-02T12:32:34.791Z,98421.56
2023-05-02T12:35:03.789Z,98408.34
2023-05-02T12:37:30.370Z,98396.38
2023-05-02T12:39:56.838Z,98420.75
2023-05-02T12:42:25.311Z,98419.72
2023-05-02T12:44:53.076Z,98420.78
2023-05-02T12:47:21.397Z,98430.00
2023-05-02T12:49:56.432Z,98433.84
2023-05-02T12:52:49.769Z,98420.66
2023-05-02T12:55:21.178Z,98414.00
2023-05-02T12:57:48.325Z,98412.00
2023-05-02T13:00:20.102Z,98409.44
2023-05-02T13:02:49.685Z,98422.53
2023-05-02T13:05:19.987Z,98423.72
2023-05-02T13:07:49.711Z,98424.66
2023-05-02T13:10:19.293Z,98429.13
2023-05-02T13:12:48.088Z,98422.41
2023-05-02T13:15:16.777Z,98432.22
2023-05-02T13:17:43.654Z,98427.66
2023-05-02T13:20:10.787Z,98420.25
2023-05-02T13:22:37.730Z,98424.00
2023-05-02T13:25:05.432Z,98433.31
2023-05-02T13:27:34.047Z,98424.25
2023-05-02T13:30:07.512Z,98425.94
2023-05-02T13:32:35.661Z,98415.78
2023-05-02T13:35:04.170Z,98414.59
2023-05-02T13:37:30.662Z,98405.97
2023-05-02T13:39:57.319Z,98395.22
2023-05-02T13:42:23.825Z,98405.09
2023-05-02T13:44:50.508Z,98410.25
2023-05-02T13:47:18.715Z,98394.00
2023-05-02T13:49:45.148Z,98382.34
2023-05-02T13:52:11.679Z,98388.34
2023-05-02T13:54:38.258Z,98387.97
2023-05-02T13:57:05.574Z,98388.63
2023-05-02T13:59:32.346Z,98403.47
2023-05-02T14:01:59.017Z,98391.00
2023-05-02T14:04:25.713Z,98398.91
2023-05-02T14:06:52.436Z,98397.03
2023-05-02T14:09:22.189Z,98379.97
2023-05-02T14:11:51.960Z,98367.19
2023-05-02T14:14:21.638Z,98387.53
2023-05-02T14:16:51.420Z,98400.63
2023-05-02T14:19:20.835Z,98387.97
2023-05-02T14:21:54.826Z,98406.28
2023-05-02T14:24:21.362Z,98401.69
2023-05-02T14:26:49.659Z,98395.84
2023-05-02T14:29:16.318Z,98400.38
2023-05-02T14:31:42.932Z,98396.53
2023-05-02T14:34:09.441Z,98402.13
2023-05-02T14:36:35.933Z,98406.09
2023-05-02T14:39:02.390Z,98396.03
2023-05-02T14:41:28.844Z,98405.31
2023-05-02T14:43:55.299Z,98395.66
2023-05-02T14:46:21.918Z,98403.16
2023-05-02T14:48:51.179Z,98412.91
2023-05-02T14:51:20.444Z,98421.13
2023-05-02T14:53:51.297Z,98405.59
2023-05-02T14:56:20.488Z,98405.06
2023-05-02T14:58:49.073Z,98395.38
2023-05-02T15:01:23.068Z,98402.91
2023-05-02T15:04:05.832Z,98395.09
2023-05-02T15:06:34.114Z,98394.25
2023-05-02T15:09:01.672Z,98393.34
2023-05-02T15:11:28.166Z,98400.31
2023-05-02T15:13:56.554Z,98410.63
2023-05-02T15:16:24.964Z,98400.16
2023-05-02T15:18:51.479Z,98414.81
2023-05-02T15:21:21.983Z,98404.84
2023-05-02T15:23:51.541Z,98406.66
2023-05-02T15:26:21.537Z,98396.22
2023-05-02T15:28:51.359Z,98406.59
2023-05-02T15:31:21.553Z,98395.31
2023-05-02T15:33:51.442Z,98391.84
2023-05-02T15:36:20.731Z,98388.22
2023-05-02T15:38:49.681Z,98396.31
2023-05-02T15:41:16.505Z,98395.34
2023-05-02T15:43:43.558Z,98397.19
2023-05-02T15:46:11.170Z,98395.81
2023-05-02T15:48:37.676Z,98391.13
2023-05-02T15:51:05.408Z,98399.09
2023-05-02T15:53:32.164Z,98403.97
2023-05-02T15:55:58.655Z,98399.34
2023-05-02T15:58:25.128Z,98396.56
2023-05-02T16:00:52.595Z,98388.91
2023-05-02T16:03:19.912Z,98389.50
2023-05-02T16:05:48.718Z,98396.44
2023-05-02T16:08:15.187Z,98389.41
2023-05-02T16:10:43.504Z,98396.22
2023-05-02T16:13:10.270Z,98384.19
2023-05-02T16:15:37.828Z,98399.13
2023-05-02T16:18:04.419Z,98391.13
2023-05-02T16:20:33.870Z,98386.91
2023-05-02T16:23:00.566Z,98401.53
2023-05-02T16:25:27.075Z,98382.63
2023-05-02T16:27:53.508Z,98392.16
2023-05-02T16:30:20.023Z,98393.59
2023-05-02T16:32:46.948Z,98391.16
2023-05-02T16:35:14.121Z,98395.44
2023-05-02T16:37:41.370Z,98400.53
2023-05-02T16:40:08.938Z,98391.59
2023-05-02T16:42:35.699Z,98390.63
2023-05-02T16:45:02.321Z,98388.00
2023-05-02T16:47:28.883Z,98391.28
2023-05-02T16:49:56.757Z,98396.28
2023-05-02T16:52:23.824Z,98395.44
2023-05-02T16:54:50.494Z,98381.81
2023-05-02T16:57:21.274Z,98389.38
2023-05-02T16:59:52.535Z,98389.31
2023-05-02T17:02:22.145Z,98387.19
2023-05-02T17:04:52.265Z,98391.09
2023-05-02T17:07:21.708Z,98374.69
2023-05-02T17:09:50.917Z,98371.06
2023-05-02T17:12:22.710Z,98366.03
2023-05-02T17:14:52.320Z,98374.78
2023-05-02T17:17:23.518Z,98371.59
2023-05-02T17:19:50.693Z,98379.81
2023-05-02T17:22:21.326Z,98378.03
2023-05-02T17:24:53.988Z,98386.72
2023-05-02T17:27:20.554Z,98376.09
2023-05-02T17:29:49.370Z,98383.06
2023-05-02T17:32:16.005Z,98372.81
2023-05-02T17:34:45.914Z,98381.72
2023-05-02T17:37:12.648Z,98372.31
2023-05-02T17:39:39.151Z,98385.28
2023-05-02T17:42:05.772Z,98377.63
2023-05-02T17:44:35.873Z,98360.50
2023-05-02T17:47:03.507Z,98362.59
2023-05-02T17:49:30.080Z,98359.13
2023-05-02T17:51:56.897Z,98337.66
2023-05-02T17:54:23.402Z,98357.25
2023-05-02T17:56:50.669Z,98335.81
2023-05-02T17:59:19.369Z,98344.91
2023-05-02T18:01:45.883Z,98341.81
2023-05-02T18:04:14.131Z,98349.28
2023-05-02T18:06:40.924Z,98344.97
2023-05-02T18:09:07.418Z,98336.34
2023-05-02T18:11:33.913Z,98347.28
2023-05-02T18:14:03.693Z,98338.84
2023-05-02T18:16:31.880Z,98330.78
2023-05-02T18:18:58.455Z,98344.19
2023-05-02T18:21:25.844Z,98344.19
2023-05-02T18:23:52.343Z,98348.13
2023-05-02T18:26:22.082Z,98352.22
2023-05-02T18:28:53.211Z,98339.59
2023-05-02T18:31:22.230Z,98362.88
2023-05-02T18:33:53.503Z,98347.97
2023-05-02T18:36:28.370Z,98363.66
2023-05-02T18:38:57.788Z,98365.25
2023-05-02T18:41:24.346Z,98353.28
2023-05-02T18:43:50.999Z,98360.28
2023-05-02T18:46:19.792Z,98360.84
2023-05-02T18:48:46.415Z,98370.50
2023-05-02T18:51:13.392Z,98378.31
2023-05-02T18:53:39.871Z,98372.66
2023-05-02T18:56:13.396Z,98383.19
2023-05-02T18:58:40.879Z,98375.34
2023-05-02T19:01:15.243Z,98380.63
2023-05-02T19:03:43.612Z,98368.16
2023-05-02T19:06:10.853Z,98397.56
2023-05-02T19:08:37.427Z,98396.38
2023-05-02T19:11:04.308Z,98400.41
2023-05-02T19:13:31.240Z,98406.84
2023-05-02T19:15:58.090Z,98417.94
2023-05-02T19:18:24.639Z,98420.34
2023-05-02T19:20:53.788Z,98419.13
2023-05-02T19:23:23.148Z,98415.94
2023-05-02T19:25:53.952Z,98433.44
2023-05-02T19:28:23.502Z,98436.47
2023-05-02T19:30:54.869Z,98432.53
2023-05-02T19:33:24.450Z,98437.75
2023-05-02T19:35:54.291Z,98402.22
2023-05-02T19:38:24.867Z,98433.53
2023-05-02T19:40:51.651Z,98442.09
2023-05-02T19:43:18.178Z,98435.00
2023-05-02T19:45:44.860Z,98426.38
2023-05-02T19:48:12.796Z,98444.06
2023-05-02T19:50:42.767Z,98421.50
2023-05-02T19:53:09.262Z,98435.59
2023-05-02T19:55:35.883Z,98443.41
2023-05-02T19:58:04.246Z,98447.44
2023-05-02T20:00:30.979Z,98449.47
2023-05-02T20:02:57.671Z,98440.75
2023-05-02T20:05:29.790Z,98449.00
2023-05-02T20:07:56.314Z,98456.00
2023-05-02T20:10:23.029Z,98444.38
2023-05-02T20:12:52.725Z,98452.00
2023-05-02T20:15:21.365Z,98462.16
2023-05-02T20:17:47.941Z,98464.47
2023-05-02T20:20:14.567Z,98474.75
2023-05-02T20:22:41.366Z,98474.28
2023-05-02T20:25:10.340Z,98474.03
2023-05-02T20:27:36.825Z,98479.53
2023-05-02T20:30:03.697Z,98478.66
2023-05-02T20:32:30.701Z,98471.56
2023-05-02T20:34:57.689Z,98475.97
2023-05-02T20:37:25.545Z,98476.81
2023-05-02T20:39:52.812Z,98481.50
2023-05-02T20:42:23.379Z,98479.84
2023-05-02T20:45:08.792Z,98483.13
2023-05-02T20:47:35.341Z,98470.69
2023-05-02T20:50:02.078Z,98487.78
2023-05-02T20:52:28.995Z,98494.31
2023-05-02T20:54:56.308Z,98491.34
2023-05-02T20:57:26.464Z,98464.78
2023-05-02T20:59:59.520Z,98502.97
2023-05-02T21:02:27.418Z,98499.47
2023-05-02T21:04:55.099Z,98486.56
2023-05-02T21:07:25.752Z,98474.81
2023-05-02T21:09:55.919Z,98485.75
2023-05-02T21:12:24.181Z,98487.75
2023-05-02T21:14:50.774Z,98503.38
2023-05-02T21:17:17.509Z,98491.41
2023-05-02T21:19:43.995Z,98488.16
2023-05-02T21:22:10.527Z,98504.91
2023-05-02T21:24:36.985Z,98507.94
2023-05-02T21:27:03.727Z,98494.84
2023-05-02T21:29:30.231Z,98499.69
2023-05-02T21:31:56.707Z,98511.19
2023-05-02T21:34:24.934Z,98496.06
2023-05-02T21:36:51.411Z,98492.94
2023-05-02T21:39:18.231Z,98490.50
2023-05-02T21:41:44.660Z,98490.03
2023-05-02T21:44:11.613Z,98494.38
2023-05-02T21:46:38.055Z,98497.19
2023-05-02T21:49:04.553Z,98485.78
2023-05-02T21:51:31.625Z,98499.56
2023-05-02T21:53:58.028Z,98505.59
2023-05-02T21:56:27.636Z,98502.59
2023-05-02T21:58:56.365Z,98514.56
2023-05-02T22:01:22.928Z,98515.91
2023-05-02T22:03:49.450Z,98506.13
2023-05-02T22:06:16.749Z,98502.97
2023-05-02T22:08:43.926Z,98505.81
2023-05-02T22:11:10.400Z,98497.84
2023-05-02T22:13:37.269Z,98508.34
2023-05-02T22:16:03.892Z,98507.00
2023-05-02T22:18:30.368Z,98503.88
2023-05-02T22:21:01.552Z,98506.03
2023-05-02T22:23:28.068Z,98504.38
2023-05-02T22:25:54.495Z,98509.84
2023-05-02T22:28:21.047Z,98502.91
2023-05-02T22:30:47.559Z,98504.91
2023-05-02T22:33:14.314Z,98505.06
2023-05-02T22:35:40.997Z,98499.75
2023-05-02T22:38:10.891Z,98490.78
2023-05-02T22:40:37.374Z,98497.28
2023-05-02T22:43:03.915Z,98484.81
2023-05-02T22:45:30.504Z,98480.16
2023-05-02T22:48:00.682Z,98493.13
2023-05-02T22:50:31.321Z,98485.31
2023-05-02T22:53:03.759Z,98483.16
2023-05-02T22:55:30.627Z,98480.84
2023-05-02T22:57:59.469Z,98478.03
2023-05-02T23:00:26.024Z,98480.00
2023-05-02T23:02:52.588Z,98477.53
2023-05-02T23:05:19.498Z,98477.72
2023-05-02T23:07:45.956Z,98477.56
2023-05-02T23:10:12.433Z,98483.34
2023-05-02T23:12:39.162Z,98477.53
2023-05-02T23:15:06.857Z,98484.97
2023-05-02T23:17:33.469Z,98481.16
2023-05-02T23:20:03.366Z,98482.50
2023-05-02T23:22:31.335Z,98485.00
2023-05-02T23:24:57.788Z,98473.50
2023-05-02T23:27:24.212Z,98482.28
2023-05-02T23:29:50.681Z,98493.22
2023-05-02T23:32:17.313Z,98494.50
2023-05-02T23:34:44.408Z,98488.97
2023-05-02T23:37:12.734Z,98484.97
2023-05-02T23:39:39.326Z,98478.97
2023-05-02T23:42:06.464Z,98480.25
2023-05-02T23:44:33.281Z,98490.72
2023-05-02T23:47:00.704Z,98483.56
2023-05-02T23:49:27.778Z,98478.44
2023-05-02T23:51:54.375Z,98478.28
2023-05-02T23:54:20.796Z,98462.88
2023-05-02T23:56:47.251Z,98470.69
2023-05-02T23:59:13.705Z,98468.00
